Time;durP1;ratioP1;P1;durP2;ratioP2;P2;SDS_P1;SDS_P2;PMS_P1;PMS_P2;Temp;Humidity;BMP_temperature;BMP_pressure;BME280_temperature;BME280_humidity;BME280_pressure;Samples;Min_cycle;Max_cycle;Signal;HPM_P1;HPM_P2
2023/01/31 00:00:29;;;;;;;8.07;1.57;;;4.10;99.90;;;;;;5089710;27;20182;-53
2023/01/31 00:02:58;;;;;;;13.43;2.30;;;4.10;99.90;;;;;;5100872;27;20212;-52
2023/01/31 00:05:26;;;;;;;6.50;2.00;;;4.10;99.90;;;;;;5103282;27;20228;-56
2023/01/31 00:07:53;;;;;;;7.27;2.17;;;4.10;99.90;;;;;;5101929;27;20201;-53
2023/01/31 00:10:21;;;;;;;12.90;1.77;;;4.10;99.90;;;;;;5082204;27;20227;-54
2023/01/31 00:12:49;;;;;;;13.03;2.13;;;4.10;99.90;;;;;;5101163;27;20669;-50
2023/01/31 00:15:17;;;;;;;6.47;1.80;;;4.00;99.90;;;;;;5104557;27;20213;-55
2023/01/31 00:17:44;;;;;;;9.00;1.87;;;4.00;99.90;;;;;;5094602;27;20198;-54
2023/01/31 00:20:12;;;;;;;11.10;2.07;;;4.00;99.90;;;;;;5100802;27;20197;-53
2023/01/31 00:22:40;;;;;;;9.93;1.70;;;3.90;99.90;;;;;;5100009;27;20276;-50
2023/01/31 00:25:08;;;;;;;11.27;2.03;;;3.90;99.90;;;;;;5094786;27;20212;-51
2023/01/31 00:27:35;;;;;;;14.17;2.20;;;3.90;99.90;;;;;;5095978;27;20926;-49
2023/01/31 00:30:01;;;;;;;12.30;2.53;;;3.90;99.90;;;;;;5107315;27;20206;-48
2023/01/31 00:32:28;;;;;;;10.37;1.73;;;3.90;99.90;;;;;;5095890;27;20213;-51
2023/01/31 00:34:55;;;;;;;10.63;2.20;;;3.90;99.90;;;;;;5107060;28;20711;-49
2023/01/31 00:37:23;;;;;;;11.83;2.07;;;4.00;99.90;;;;;;5093437;27;20213;-53
2023/01/31 00:39:52;;;;;;;10.90;1.80;;;4.00;99.90;;;;;;5084171;27;20221;-50
2023/01/31 00:42:18;;;;;;;9.37;1.87;;;4.00;99.90;;;;;;5096323;27;20201;-53
2023/01/31 00:44:45;;;;;;;12.67;2.07;;;4.00;99.90;;;;;;5124488;27;20217;-50
2023/01/31 00:47:12;;;;;;;12.37;2.07;;;4.00;99.90;;;;;;5108217;27;20307;-51
2023/01/31 00:49:38;;;;;;;8.47;2.00;;;4.00;99.90;;;;;;5094068;27;20197;-49
2023/01/31 00:52:05;;;;;;;13.67;1.80;;;4.00;99.90;;;;;;5102363;27;20243;-51
2023/01/31 00:54:33;;;;;;;6.97;1.67;;;4.00;99.90;;;;;;5081120;27;23970;-48
2023/01/31 00:57:01;;;;;;;16.27;1.77;;;4.00;99.90;;;;;;5100390;27;20201;-50
2023/01/31 00:59:28;;;;;;;11.43;1.80;;;3.90;99.90;;;;;;5107876;27;20189;-49
2023/01/31 01:01:54;;;;;;;11.10;2.23;;;3.90;99.90;;;;;;5084679;27;20201;-49
2023/01/31 01:04:22;;;;;;;5.90;1.83;;;3.90;99.90;;;;;;5095121;27;20849;-49
2023/01/31 01:06:51;;;;;;;5.53;1.50;;;3.90;99.90;;;;;;5097747;28;20201;-49
2023/01/31 01:09:18;;;;;;;6.43;1.63;;;3.80;99.90;;;;;;5110584;27;20211;-50
2023/01/31 01:11:49;;;;;;;12.57;2.00;;;3.80;99.90;;;;;;5077537;27;20198;-49
2023/01/31 01:14:16;;;;;;;8.77;1.47;;;3.70;99.90;;;;;;5102398;27;20581;-51
2023/01/31 01:16:43;;;;;;;13.00;2.60;;;3.70;99.90;;;;;;5124962;27;20284;-53
2023/01/31 01:19:13;;;;;;;13.50;1.90;;;3.70;99.90;;;;;;5092689;27;20538;-54
2023/01/31 01:21:40;;;;;;;10.90;1.77;;;3.70;99.90;;;;;;5097470;27;20277;-51
2023/01/31 01:24:12;;;;;;;9.70;1.60;;;3.60;99.90;;;;;;5098968;27;20673;-54
2023/01/31 01:26:39;;;;;;;6.40;1.53;;;3.60;99.90;;;;;;5089533;27;20206;-52
2023/01/31 01:29:08;;;;;;;9.40;2.00;;;3.60;99.90;;;;;;5108430;27;20312;-51
2023/01/31 01:31:36;;;;;;;12.00;1.70;;;3.60;99.90;;;;;;5121644;27;20982;-49
2023/01/31 01:34:05;;;;;;;11.27;1.70;;;3.60;99.90;;;;;;5114722;27;20277;-54
2023/01/31 01:36:34;;;;;;;8.93;1.83;;;3.60;99.90;;;;;;5101286;27;20285;-50
2023/01/31 01:39:02;;;;;;;8.67;1.60;;;3.50;99.90;;;;;;5102319;27;20208;-50
2023/01/31 01:41:32;;;;;;;12.27;1.77;;;3.50;99.90;;;;;;5082605;27;21942;-48
2023/01/31 01:43:59;;;;;;;7.00;1.40;;;3.50;99.90;;;;;;5102529;27;20243;-49
2023/01/31 01:46:30;;;;;;;8.60;1.50;;;3.40;99.90;;;;;;5112487;27;20204;-51
2023/01/31 01:49:00;;;;;;;9.67;2.07;;;3.40;99.90;;;;;;5095302;27;20209;-52
2023/01/31 01:51:29;;;;;;;17.83;2.63;;;3.40;99.90;;;;;;5109589;27;20193;-49
2023/01/31 01:53:59;;;;;;;10.60;1.90;;;3.40;99.90;;;;;;5119287;27;20821;-50
2023/01/31 01:56:32;;;;;;;5.67;1.50;;;3.30;99.90;;;;;;5077440;27;20194;-50
2023/01/31 01:59:03;;;;;;;7.40;1.40;;;3.30;99.90;;;;;;5094972;27;20201;-51
2023/01/31 02:01:35;;;;;;;12.23;1.67;;;3.40;99.90;;;;;;5117086;27;20844;-50
2023/01/31 02:04:09;;;;;;;14.13;1.93;;;3.40;99.90;;;;;;5119731;27;20200;-53
2023/01/31 02:06:36;;;;;;;11.77;2.00;;;3.40;99.90;;;;;;5112115;27;20367;-48
2023/01/31 02:09:07;;;;;;;16.40;2.47;;;3.40;99.90;;;;;;5105165;27;20207;-50
2023/01/31 02:11:34;;;;;;;15.50;2.27;;;3.40;99.90;;;;;;5095749;27;20856;-48
2023/01/31 02:14:04;;;;;;;9.57;2.10;;;3.40;99.90;;;;;;5091890;27;20214;-48
2023/01/31 02:16:35;;;;;;;11.47;2.23;;;3.40;99.90;;;;;;5097047;27;20196;-52
2023/01/31 02:19:07;;;;;;;10.67;2.10;;;3.40;99.90;;;;;;5104062;27;20673;-52
2023/01/31 02:22:09;;;;;;;10.90;1.80;;;3.50;99.90;;;;;;5103038;27;20207;-49
2023/01/31 02:25:13;;;;;;;12.27;2.37;;;3.50;99.90;;;;;;5111323;27;20216;-53
2023/01/31 02:28:12;;;;;;;9.87;2.27;;;3.60;99.90;;;;;;5084500;28;20291;-48
2023/01/31 02:31:06;;;;;;;16.63;2.67;;;3.60;99.90;;;;;;5085451;27;20212;-49
2023/01/31 02:33:43;;;;;;;10.30;2.03;;;3.60;99.90;;;;;;5095014;28;20198;-51
2023/01/31 02:36:20;;;;;;;18.97;2.80;;;3.70;99.90;;;;;;5095305;27;20252;-54
2023/01/31 02:38:59;;;;;;;17.53;2.57;;;3.70;99.90;;;;;;5097515;27;20200;-51
2023/01/31 02:41:35;;;;;;;12.07;2.60;;;3.70;99.90;;;;;;5092945;27;20205;-49
2023/01/31 02:47:00;;;;;;;15.37;2.33;;;3.70;99.90;;;;;;5098726;27;20242;-50
2023/01/31 02:49:38;;;;;;;16.37;2.30;;;3.70;99.90;;;;;;5094318;28;20207;-49
2023/01/31 02:52:20;;;;;;;13.47;2.20;;;3.70;99.90;;;;;;5095855;27;20287;-51
2023/01/31 02:57:47;;;;;;;9.87;2.27;;;3.70;99.90;;;;;;5098401;28;20189;-48
2023/01/31 03:00:16;;;;;;;10.17;2.07;;;3.70;99.90;;;;;;5077541;28;20241;-54
2023/01/31 03:02:43;;;;;;;9.50;1.97;;;3.80;99.90;;;;;;5092159;27;20205;-51
2023/01/31 03:05:15;;;;;;;11.47;2.83;;;3.70;99.90;;;;;;5106787;27;20309;-55
2023/01/31 03:07:46;;;;;;;17.07;2.50;;;3.70;99.90;;;;;;5096268;28;20297;-53
2023/01/31 03:10:24;;;;;;;12.17;2.63;;;3.70;99.90;;;;;;5118534;28;20263;-54
2023/01/31 03:13:02;;;;;;;12.07;2.23;;;3.70;99.90;;;;;;5123683;27;20249;-50
2023/01/31 03:18:29;;;;;;;8.87;1.90;;;3.70;99.90;;;;;;5100448;28;20267;-51
2023/01/31 03:21:02;;;;;;;15.30;1.83;;;3.60;99.90;;;;;;5098329;28;20197;-50
2023/01/31 03:23:34;;;;;;;13.13;1.67;;;3.60;99.90;;;;;;5096043;28;20287;-49
2023/01/31 03:26:05;;;;;;;12.10;1.80;;;3.60;99.90;;;;;;5101216;28;20711;-58
2023/01/31 03:28:35;;;;;;;5.43;1.40;;;3.60;99.90;;;;;;5099835;28;20193;-49
2023/01/31 03:31:08;;;;;;;10.07;1.67;;;3.70;99.90;;;;;;5087524;28;20212;-54
2023/01/31 03:33:37;;;;;;;9.97;1.60;;;3.70;99.90;;;;;;5117243;27;20299;-50
2023/01/31 03:36:31;;;;;;;5.13;1.33;;;3.70;99.90;;;;;;5112902;28;20204;-50
2023/01/31 03:39:16;;;;;;;5.93;1.70;;;3.70;99.90;;;;;;5095859;28;20197;-52
2023/01/31 03:41:55;;;;;;;11.33;2.93;;;3.70;99.90;;;;;;5122004;28;20340;-51
2023/01/31 03:44:30;;;;;;;16.73;2.20;;;3.70;99.90;;;;;;5087106;28;20623;-49
2023/01/31 03:47:04;;;;;;;5.17;1.20;;;3.80;99.90;;;;;;5093788;28;20220;-50
2023/01/31 03:49:33;;;;;;;9.77;1.67;;;3.80;99.90;;;;;;5096068;28;20936;-48
2023/01/31 03:52:05;;;;;;;10.00;2.33;;;3.80;99.90;;;;;;5121048;28;20205;-54
2023/01/31 03:54:37;;;;;;;8.13;2.07;;;3.80;99.90;;;;;;5111711;27;20301;-50
2023/01/31 03:57:09;;;;;;;9.03;1.23;;;3.80;99.90;;;;;;5120473;28;20206;-53
2023/01/31 03:59:40;;;;;;;7.40;1.50;;;3.80;99.90;;;;;;5121496;28;20205;-50
2023/01/31 04:02:11;;;;;;;11.73;2.13;;;3.80;99.90;;;;;;5084484;28;20296;-53
2023/01/31 04:04:43;;;;;;;10.13;1.67;;;3.80;99.90;;;;;;5101302;28;20217;-53
2023/01/31 04:07:12;;;;;;;12.30;2.00;;;3.80;99.90;;;;;;5104288;28;20224;-54
2023/01/31 04:09:40;;;;;;;7.73;2.03;;;3.80;99.90;;;;;;5106120;27;20257;-52
2023/01/31 04:12:07;;;;;;;9.13;1.97;;;3.80;99.90;;;;;;5124829;27;20207;-54
2023/01/31 04:14:34;;;;;;;11.23;2.30;;;3.80;99.90;;;;;;5125610;27;20213;-50
2023/01/31 04:17:03;;;;;;;11.30;2.27;;;3.80;99.90;;;;;;5104041;27;20568;-54
2023/01/31 04:19:30;;;;;;;10.33;2.37;;;3.80;99.90;;;;;;5090025;27;20823;-49
2023/01/31 04:21:56;;;;;;;14.97;2.77;;;3.80;99.90;;;;;;5104643;27;20212;-54
2023/01/31 04:24:25;;;;;;;15.40;2.60;;;3.80;99.90;;;;;;5096378;27;20867;-52
2023/01/31 04:26:53;;;;;;;13.50;2.27;;;3.80;99.90;;;;;;5111205;27;20243;-49
2023/01/31 04:29:19;;;;;;;10.63;2.33;;;3.80;99.90;;;;;;5098054;27;20186;-48
2023/01/31 04:31:46;;;;;;;14.87;3.73;;;3.80;99.90;;;;;;5099304;27;20213;-49
2023/01/31 04:34:13;;;;;;;7.70;2.13;;;3.80;99.90;;;;;;5083418;27;20212;-53
2023/01/31 04:36:40;;;;;;;13.10;2.53;;;3.90;99.90;;;;;;5102144;27;20566;-50
2023/01/31 04:39:07;;;;;;;13.83;2.23;;;3.90;99.90;;;;;;5104119;27;20208;-52
2023/01/31 04:41:35;;;;;;;10.60;2.17;;;3.90;99.90;;;;;;5103161;27;20189;-49
2023/01/31 04:44:04;;;;;;;11.70;2.20;;;3.90;99.90;;;;;;5123600;27;20223;-55
2023/01/31 04:46:30;;;;;;;10.77;2.27;;;3.90;99.90;;;;;;5113945;27;20221;-50
2023/01/31 04:48:57;;;;;;;13.83;2.70;;;3.90;99.90;;;;;;5089361;27;20205;-50
2023/01/31 04:51:23;;;;;;;13.20;2.20;;;3.90;99.90;;;;;;5101822;27;21053;-51
2023/01/31 04:54:12;;;;;;;12.07;2.20;;;3.90;99.90;;;;;;5097072;28;20279;-52
2023/01/31 04:56:41;;;;;;;9.63;2.57;;;3.90;99.90;;;;;;5100985;27;20193;-52
2023/01/31 04:59:08;;;;;;;13.03;2.37;;;3.90;99.90;;;;;;5106785;27;20200;-54
2023/01/31 05:01:34;;;;;;;17.13;2.93;;;3.90;99.90;;;;;;5105115;28;20189;-48
2023/01/31 05:04:01;;;;;;;15.30;2.50;;;4.00;99.90;;;;;;5083847;27;20662;-52
2023/01/31 05:06:28;;;;;;;18.17;2.73;;;3.90;99.90;;;;;;5100671;27;20728;-52
2023/01/31 05:08:55;;;;;;;5.97;2.40;;;3.90;99.90;;;;;;5109481;27;20584;-54
2023/01/31 05:11:22;;;;;;;13.73;2.63;;;4.00;99.90;;;;;;5111818;27;20203;-50
2023/01/31 05:13:50;;;;;;;18.50;3.23;;;4.00;99.90;;;;;;5105299;27;20208;-50
2023/01/31 05:16:17;;;;;;;13.93;3.60;;;4.00;99.90;;;;;;5101639;27;20217;-51
2023/01/31 05:18:43;;;;;;;10.30;2.60;;;4.00;99.90;;;;;;5104328;27;20219;-51
2023/01/31 05:21:11;;;;;;;12.70;2.70;;;4.00;99.90;;;;;;5088335;27;20201;-49
2023/01/31 05:23:37;;;;;;;12.90;2.50;;;4.00;99.90;;;;;;5113333;27;20630;-52
2023/01/31 05:26:05;;;;;;;12.60;2.67;;;4.00;99.90;;;;;;5123062;27;20201;-54
2023/01/31 05:28:32;;;;;;;10.53;2.33;;;4.00;99.90;;;;;;5110825;27;20196;-51
2023/01/31 05:31:04;;;;;;;9.67;2.17;;;4.00;99.90;;;;;;5121235;27;20204;-52
2023/01/31 05:33:30;;;;;;;10.53;2.53;;;4.10;99.90;;;;;;5110269;27;20205;-55
2023/01/31 05:35:57;;;;;;;10.47;2.50;;;4.10;99.90;;;;;;5086431;28;20241;-52
2023/01/31 05:38:24;;;;;;;11.03;2.33;;;4.10;99.90;;;;;;5093085;27;20281;-51
2023/01/31 05:40:51;;;;;;;12.00;2.67;;;4.10;99.90;;;;;;5104439;27;20683;-50
2023/01/31 05:43:18;;;;;;;11.13;2.03;;;4.10;99.90;;;;;;5092328;27;20696;-50
2023/01/31 05:45:47;;;;;;;19.37;2.40;;;4.10;99.90;;;;;;5124648;27;20304;-51
2023/01/31 05:48:15;;;;;;;14.87;2.37;;;4.10;99.90;;;;;;5105432;27;20226;-49
2023/01/31 05:50:42;;;;;;;12.17;2.10;;;4.10;99.90;;;;;;5081219;28;20209;-49
2023/01/31 05:53:09;;;;;;;12.30;1.90;;;4.10;99.90;;;;;;5095732;27;20198;-51
2023/01/31 05:55:36;;;;;;;11.30;2.10;;;4.10;99.90;;;;;;5102988;27;20221;-51
2023/01/31 05:58:03;;;;;;;8.60;2.10;;;4.10;99.90;;;;;;5095630;27;20573;-56
2023/01/31 06:00:30;;;;;;;12.03;3.07;;;4.10;99.90;;;;;;5099362;27;20687;-53
2023/01/31 06:02:58;;;;;;;11.60;2.23;;;4.20;99.90;;;;;;5123585;27;20220;-51
2023/01/31 06:05:26;;;;;;;9.37;2.07;;;4.20;99.90;;;;;;5090514;27;20244;-51
2023/01/31 06:07:55;;;;;;;10.77;2.90;;;4.20;99.90;;;;;;5085909;27;20225;-51
2023/01/31 06:10:22;;;;;;;20.60;2.43;;;4.20;99.90;;;;;;5097589;27;20205;-52
2023/01/31 06:12:49;;;;;;;12.47;2.27;;;4.20;99.90;;;;;;5105190;27;20213;-50
2023/01/31 06:15:15;;;;;;;15.37;2.60;;;4.20;99.90;;;;;;5104162;27;20228;-53
2023/01/31 06:17:42;;;;;;;9.83;2.37;;;4.20;99.90;;;;;;5099998;27;20197;-52
2023/01/31 06:20:10;;;;;;;14.10;2.50;;;4.20;99.90;;;;;;5107578;27;20200;-50
2023/01/31 06:22:39;;;;;;;18.47;2.93;;;4.20;99.90;;;;;;5073978;27;20235;-49
2023/01/31 06:25:07;;;;;;;12.73;2.37;;;4.20;99.90;;;;;;5092501;27;20297;-52
2023/01/31 06:27:34;;;;;;;16.97;3.10;;;4.20;99.90;;;;;;5103162;27;20220;-52
2023/01/31 06:30:01;;;;;;;18.50;3.63;;;4.20;99.90;;;;;;5104546;27;20196;-52
2023/01/31 06:32:29;;;;;;;19.07;2.93;;;4.20;99.90;;;;;;5112265;27;20216;-54
2023/01/31 06:34:57;;;;;;;13.37;2.53;;;4.30;99.90;;;;;;5097119;27;20331;-51
2023/01/31 06:37:24;;;;;;;13.80;2.47;;;4.30;99.90;;;;;;5082951;27;20217;-53
2023/01/31 06:39:52;;;;;;;17.73;4.07;;;4.30;99.90;;;;;;5088744;27;20209;-55
2023/01/31 06:42:19;;;;;;;14.10;2.90;;;4.30;99.90;;;;;;5093324;27;20228;-52
2023/01/31 06:44:45;;;;;;;13.30;2.40;;;4.30;99.90;;;;;;5102289;27;22905;-52
2023/01/31 06:47:13;;;;;;;15.80;2.70;;;4.40;99.90;;;;;;5106134;27;20294;-53
2023/01/31 06:49:40;;;;;;;11.63;2.57;;;4.30;99.90;;;;;;5093375;28;20200;-54
2023/01/31 06:52:06;;;;;;;19.00;3.17;;;4.40;99.90;;;;;;5094678;27;20210;-51
2023/01/31 06:54:33;;;;;;;16.10;2.60;;;4.40;99.90;;;;;;5086625;28;20242;-55
2023/01/31 06:57:02;;;;;;;20.23;2.77;;;4.40;99.90;;;;;;5096054;27;20201;-54
2023/01/31 06:59:28;;;;;;;16.63;2.77;;;4.40;99.90;;;;;;5103768;27;20276;-50
2023/01/31 07:01:55;;;;;;;20.20;4.93;;;4.40;99.90;;;;;;5095759;27;20196;-53
2023/01/31 07:04:22;;;;;;;11.83;3.30;;;4.40;99.90;;;;;;5097486;28;20240;-53
2023/01/31 07:06:48;;;;;;;10.10;2.90;;;4.40;99.90;;;;;;5102458;27;20213;-54
2023/01/31 07:09:15;;;;;;;19.13;3.50;;;4.40;99.90;;;;;;5076695;28;20201;-52
2023/01/31 07:24:15;;;;;;;17.23;3.43;;;4.40;99.90;;;;;;5019018;27;20694;-52
2023/01/31 07:26:42;;;;;;;20.73;3.53;;;4.80;99.90;;;;;;5030573;28;20218;-51
2023/01/31 07:29:10;;;;;;;16.37;3.60;;;4.70;99.90;;;;;;5032447;27;20225;-51
2023/01/31 07:31:38;;;;;;;13.30;3.37;;;4.70;99.90;;;;;;5040399;27;20204;-55
2023/01/31 07:34:04;;;;;;;18.90;3.03;;;4.60;99.90;;;;;;5021783;27;20227;-53
2023/01/31 07:36:32;;;;;;;13.77;3.53;;;4.60;99.90;;;;;;5014917;27;20204;-51
2023/01/31 07:39:00;;;;;;;14.67;3.20;;;4.60;99.90;;;;;;5015643;27;20212;-51
2023/01/31 07:41:28;;;;;;;12.87;3.27;;;4.60;99.90;;;;;;5017939;27;20211;-51
2023/01/31 07:43:55;;;;;;;15.17;3.53;;;4.50;99.90;;;;;;5032857;27;20220;-51
2023/01/31 07:46:22;;;;;;;17.23;3.10;;;4.60;99.90;;;;;;5033894;27;20264;-49
2023/01/31 07:48:49;;;;;;;21.60;3.87;;;4.60;99.90;;;;;;5032519;27;20200;-48
2023/01/31 07:51:15;;;;;;;22.77;4.93;;;4.60;99.90;;;;;;5041560;27;20200;-54
2023/01/31 07:53:42;;;;;;;16.23;4.33;;;4.60;99.90;;;;;;5023843;27;20228;-50
2023/01/31 07:56:12;;;;;;;19.67;4.57;;;4.70;99.90;;;;;;5019034;27;20208;-54
2023/01/31 07:58:41;;;;;;;14.50;3.33;;;4.60;99.90;;;;;;5028438;27;20322;-49
2023/01/31 08:03:58;;;;;;;17.13;4.00;;;4.70;99.90;;;;;;5030115;28;20216;-51
2023/01/31 08:06:24;;;;;;;14.40;3.60;;;4.70;99.90;;;;;;5022808;27;20211;-49
2023/01/31 08:08:51;;;;;;;16.27;4.13;;;4.70;99.90;;;;;;5056479;27;20203;-48
2023/01/31 08:11:18;;;;;;;11.57;3.73;;;4.70;99.90;;;;;;5017040;27;20230;-53
2023/01/31 08:13:46;;;;;;;22.40;5.07;;;4.80;99.90;;;;;;5026380;27;20569;-48
2023/01/31 08:16:14;;;;;;;19.73;5.47;;;4.80;99.90;;;;;;5029056;27;20194;-53
2023/01/31 08:18:40;;;;;;;14.60;4.33;;;4.80;99.90;;;;;;5024393;28;20216;-53
2023/01/31 08:21:08;;;;;;;19.90;4.13;;;4.80;99.90;;;;;;5037992;27;20231;-52
2023/01/31 08:23:36;;;;;;;18.63;4.33;;;4.80;99.90;;;;;;5017175;27;20216;-50
2023/01/31 08:26:05;;;;;;;22.60;4.90;;;4.90;99.90;;;;;;5007032;27;20275;-55
2023/01/31 08:28:33;;;;;;;12.67;4.73;;;4.90;99.90;;;;;;5015539;27;20204;-48
2023/01/31 08:31:01;;;;;;;21.60;5.90;;;4.90;99.90;;;;;;5020471;27;20208;-53
2023/01/31 08:33:28;;;;;;;20.93;4.50;;;4.90;99.90;;;;;;5007265;28;20301;-48
2023/01/31 08:35:54;;;;;;;17.50;4.50;;;4.90;99.90;;;;;;5013294;27;20200;-49
2023/01/31 08:38:21;;;;;;;16.97;4.47;;;4.90;99.90;;;;;;5038133;27;20276;-52
2023/01/31 08:40:49;;;;;;;14.63;3.93;;;4.90;99.90;;;;;;5019699;28;20192;-52
2023/01/31 08:43:16;;;;;;;12.47;4.33;;;4.90;99.90;;;;;;5001626;27;20283;-52
2023/01/31 08:45:43;;;;;;;19.17;5.27;;;5.00;99.90;;;;;;5023355;27;20274;-47
2023/01/31 08:48:11;;;;;;;15.53;4.13;;;5.00;99.90;;;;;;5013415;28;20201;-55
2023/01/31 08:50:38;;;;;;;15.63;5.17;;;5.00;99.90;;;;;;5009847;27;23757;-49
2023/01/31 08:53:05;;;;;;;18.63;5.40;;;5.00;99.90;;;;;;5009919;27;20316;-55
2023/01/31 08:55:50;;;;;;;15.60;4.00;;;5.00;99.90;;;;;;5014925;28;20238;-50
2023/01/31 08:58:41;;;;;;;13.73;4.83;;;5.00;99.90;;;;;;5008229;28;20227;-47
2023/01/31 09:01:27;;;;;;;10.37;4.23;;;5.00;99.90;;;;;;5008500;28;21939;-48
2023/01/31 09:03:56;;;;;;;14.07;3.77;;;5.00;99.90;;;;;;5020356;28;20207;-47
2023/01/31 09:06:25;;;;;;;14.93;4.43;;;5.00;99.90;;;;;;5008243;27;20445;-46
2023/01/31 09:08:52;;;;;;;13.83;4.47;;;5.00;99.90;;;;;;5016770;27;20761;-47
2023/01/31 09:11:20;;;;;;;19.27;5.77;;;4.90;99.90;;;;;;5022521;27;20207;-46
2023/01/31 09:13:50;;;;;;;11.93;5.03;;;5.00;99.90;;;;;;5016222;27;20286;-49
2023/01/31 09:16:17;;;;;;;15.90;5.43;;;5.00;99.90;;;;;;5046436;27;21013;-51
2023/01/31 09:18:44;;;;;;;15.97;4.53;;;5.00;99.90;;;;;;5017257;28;20888;-46
2023/01/31 09:21:14;;;;;;;16.93;4.70;;;5.00;99.90;;;;;;5008902;28;20205;-51
2023/01/31 09:23:41;;;;;;;17.77;5.30;;;5.00;99.90;;;;;;5009359;27;20223;-48
2023/01/31 09:26:08;;;;;;;19.50;5.30;;;5.00;99.90;;;;;;5030859;27;20203;-52
2023/01/31 09:28:35;;;;;;;21.80;5.47;;;5.00;99.90;;;;;;5006918;27;20216;-47
2023/01/31 09:31:05;;;;;;;21.30;5.63;;;5.00;99.90;;;;;;5015983;28;20687;-54
2023/01/31 09:33:33;;;;;;;18.17;5.37;;;5.00;99.90;;;;;;5003862;27;20227;-50
2023/01/31 09:36:01;;;;;;;20.53;5.83;;;5.10;99.90;;;;;;5007827;28;20208;-51
2023/01/31 09:38:29;;;;;;;21.73;6.30;;;5.10;99.90;;;;;;5015586;27;20196;-53
2023/01/31 09:40:58;;;;;;;12.57;4.50;;;5.10;99.90;;;;;;5012318;27;20204;-49
2023/01/31 09:43:28;;;;;;;13.77;5.03;;;5.10;99.90;;;;;;5009270;28;20211;-49
2023/01/31 09:45:59;;;;;;;11.90;4.47;;;5.10;99.90;;;;;;5054621;27;20196;-51
2023/01/31 09:48:30;;;;;;;14.87;4.93;;;5.10;99.90;;;;;;5019383;27;20235;-52
2023/01/31 09:50:59;;;;;;;15.40;5.70;;;5.10;99.90;;;;;;5014286;27;20204;-46
2023/01/31 09:53:31;;;;;;;10.03;4.80;;;5.10;99.90;;;;;;5013621;27;20502;-49
2023/01/31 09:56:13;;;;;;;18.40;5.47;;;5.10;99.90;;;;;;5032578;27;20196;-52
2023/01/31 09:58:49;;;;;;;10.50;4.80;;;5.10;99.90;;;;;;5016539;28;20212;-47
2023/01/31 10:01:22;;;;;;;11.57;4.93;;;5.10;99.90;;;;;;5003986;27;20208;-52
2023/01/31 10:04:01;;;;;;;8.13;4.47;;;5.20;99.90;;;;;;5002021;28;20605;-51
2023/01/31 10:06:34;;;;;;;13.07;4.70;;;5.20;99.90;;;;;;5009155;28;20372;-46
2023/01/31 10:09:09;;;;;;;14.50;5.40;;;5.20;99.90;;;;;;5012800;28;20196;-53
2023/01/31 10:11:40;;;;;;;18.77;5.47;;;5.20;99.90;;;;;;5028228;27;20196;-48
2023/01/31 10:14:20;;;;;;;12.07;4.90;;;5.20;99.90;;;;;;5015925;27;20236;-53
2023/01/31 10:16:57;;;;;;;8.20;4.90;;;5.20;99.90;;;;;;5027087;27;20224;-46
2023/01/31 10:19:29;;;;;;;11.23;4.60;;;5.30;99.90;;;;;;5006652;28;20926;-47
2023/01/31 10:22:00;;;;;;;8.87;4.67;;;5.30;99.90;;;;;;5019557;28;20204;-49
2023/01/31 10:24:33;;;;;;;11.03;5.27;;;5.30;99.90;;;;;;5005910;28;20956;-48
2023/01/31 10:27:07;;;;;;;9.60;4.27;;;5.30;99.90;;;;;;5005156;28;20208;-50
2023/01/31 10:29:37;;;;;;;10.53;4.83;;;5.30;99.90;;;;;;5009472;28;20257;-49
2023/01/31 10:32:07;;;;;;;11.47;4.23;;;5.30;99.90;;;;;;5000293;27;20208;-53
2023/01/31 10:34:40;;;;;;;15.57;4.77;;;5.30;99.90;;;;;;5006721;28;20220;-50
2023/01/31 10:37:14;;;;;;;12.80;4.43;;;5.30;99.90;;;;;;5010775;28;20282;-51
2023/01/31 10:39:45;;;;;;;7.37;4.80;;;5.40;99.90;;;;;;5012790;28;20215;-50
2023/01/31 10:42:21;;;;;;;14.23;4.90;;;5.40;99.90;;;;;;5016347;27;20264;-54
2023/01/31 10:44:52;;;;;;;12.83;5.33;;;5.40;99.90;;;;;;5016889;27;20220;-48
2023/01/31 10:47:21;;;;;;;11.50;5.57;;;5.40;99.90;;;;;;4996950;28;21326;-50
2023/01/31 10:49:49;;;;;;;11.37;5.30;;;5.40;99.90;;;;;;5011533;28;20196;-54
2023/01/31 10:52:34;;;;;;;10.67;5.07;;;5.40;99.90;;;;;;5014867;28;20207;-46
2023/01/31 10:55:26;;;;;;;9.37;5.20;;;5.40;99.90;;;;;;5009911;28;20223;-49
2023/01/31 10:57:55;;;;;;;9.53;4.73;;;5.50;99.90;;;;;;5001691;28;20204;-52
2023/01/31 11:00:26;;;;;;;10.47;5.10;;;5.50;99.90;;;;;;5017197;28;20208;-48
2023/01/31 11:02:53;;;;;;;16.07;5.77;;;5.50;99.90;;;;;;4999827;28;20196;-52
2023/01/31 11:05:22;;;;;;;13.83;4.93;;;5.50;99.90;;;;;;5015724;28;21043;-46
2023/01/31 11:07:49;;;;;;;8.27;4.47;;;5.60;99.90;;;;;;5005805;28;20208;-48
2023/01/31 11:10:27;;;;;;;10.97;5.23;;;5.60;99.90;;;;;;5013915;28;20891;-52
2023/01/31 11:12:55;;;;;;;10.33;4.87;;;5.60;99.90;;;;;;5004685;28;20204;-47
2023/01/31 11:15:28;;;;;;;7.37;4.80;;;5.60;99.90;;;;;;5013472;28;20759;-52
2023/01/31 11:17:58;;;;;;;10.57;5.20;;;5.60;99.90;;;;;;5010984;28;20326;-47
2023/01/31 11:20:29;;;;;;;10.63;4.17;;;5.70;99.90;;;;;;5007987;28;20200;-53
2023/01/31 11:22:57;;;;;;;13.20;5.03;;;5.70;99.90;;;;;;5008941;28;20204;-49
2023/01/31 11:25:28;;;;;;;11.07;5.10;;;5.70;99.90;;;;;;5013170;28;20231;-54
2023/01/31 11:27:59;;;;;;;8.13;4.90;;;5.80;99.90;;;;;;5009315;28;20606;-49
2023/01/31 11:30:30;;;;;;;14.90;5.23;;;5.80;99.90;;;;;;5014674;28;20249;-53
2023/01/31 11:32:58;;;;;;;10.27;4.33;;;5.80;99.90;;;;;;5017006;28;20215;-46
2023/01/31 11:35:28;;;;;;;10.43;4.70;;;5.80;99.90;;;;;;5008118;28;20220;-51
2023/01/31 11:37:56;;;;;;;10.37;4.63;;;5.80;99.90;;;;;;5015561;28;20816;-47
2023/01/31 11:40:30;;;;;;;8.60;4.33;;;5.90;99.90;;;;;;5005061;28;20257;-49
2023/01/31 11:43:00;;;;;;;7.27;3.77;;;5.90;99.90;;;;;;4998859;28;20269;-53
2023/01/31 11:45:30;;;;;;;9.07;4.03;;;5.90;99.90;;;;;;5006033;28;20224;-48
2023/01/31 11:47:58;;;;;;;11.37;4.00;;;5.90;99.90;;;;;;5045044;28;20197;-54
2023/01/31 11:50:33;;;;;;;9.27;4.53;;;5.90;99.90;;;;;;5014747;28;20208;-46
2023/01/31 11:53:01;;;;;;;5.17;3.27;;;5.90;99.90;;;;;;5003588;28;20215;-53
2023/01/31 11:55:37;;;;;;;6.20;3.10;;;6.00;99.90;;;;;;5006719;28;20719;-48
2023/01/31 11:58:18;;;;;;;6.27;2.73;;;6.00;99.90;;;;;;5006820;28;20196;-49
2023/01/31 12:00:53;;;;;;;5.77;3.30;;;6.00;99.90;;;;;;5019134;28;20223;-50
2023/01/31 12:03:20;;;;;;;5.90;2.50;;;6.00;99.90;;;;;;5004609;28;20204;-47
2023/01/31 12:05:51;;;;;;;9.17;3.33;;;6.00;99.90;;;;;;5022622;28;20207;-53
2023/01/31 12:08:33;;;;;;;5.13;2.30;;;6.00;99.90;;;;;;5012894;28;20227;-49
2023/01/31 12:11:04;;;;;;;9.10;2.77;;;6.00;99.90;;;;;;5013536;28;20662;-53
2023/01/31 12:13:31;;;;;;;5.93;2.77;;;6.10;99.90;;;;;;5013442;28;21890;-46
2023/01/31 12:16:00;;;;;;;4.13;2.80;;;6.10;99.90;;;;;;5017865;27;20192;-51
2023/01/31 12:18:44;;;;;;;2.60;2.33;;;6.10;99.90;;;;;;5019893;28;20227;-47
2023/01/31 12:21:14;;;;;;;2.37;1.70;;;6.20;99.90;;;;;;5007852;27;20215;-51
2023/01/31 12:23:55;;;;;;;9.13;2.70;;;6.20;99.90;;;;;;5012530;28;20831;-49
2023/01/31 12:26:34;;;;;;;3.47;1.87;;;6.20;99.90;;;;;;5002954;28;20211;-49
2023/01/31 12:29:24;;;;;;;5.20;1.53;;;6.20;99.90;;;;;;5007079;28;20201;-48
2023/01/31 12:32:16;;;;;;;4.83;1.70;;;6.20;99.90;;;;;;5033069;27;20215;-51
2023/01/31 12:35:08;;;;;;;4.70;1.93;;;6.20;99.90;;;;;;5014381;28;20230;-46
2023/01/31 12:37:44;;;;;;;1.83;1.30;;;6.30;99.90;;;;;;5017756;28;20204;-47
2023/01/31 12:40:28;;;;;;;2.60;1.67;;;6.20;99.90;;;;;;5002112;28;20458;-46
2023/01/31 12:43:26;;;;;;;1.57;1.47;;;6.30;99.90;;;;;;5018337;28;20288;-50
2023/01/31 12:46:05;;;;;;;2.13;1.50;;;6.30;99.90;;;;;;5022923;27;20220;-50
2023/01/31 12:48:47;;;;;;;1.27;1.17;;;6.30;99.90;;;;;;5029314;27;20378;-47
2023/01/31 12:51:28;;;;;;;3.73;1.60;;;6.30;99.90;;;;;;5006844;28;20223;-49
2023/01/31 12:54:01;;;;;;;2.67;1.30;;;6.30;99.90;;;;;;5017296;28;20315;-51
2023/01/31 12:56:44;;;;;;;4.67;1.33;;;6.30;99.90;;;;;;5006552;28;20196;-46
2023/01/31 12:59:24;;;;;;;1.60;1.50;;;6.40;99.90;;;;;;5013931;28;20199;-47
2023/01/31 13:01:58;;;;;;;3.93;1.50;;;6.40;99.90;;;;;;5007799;28;20200;-53
2023/01/31 13:04:33;;;;;;;2.47;1.30;;;6.40;99.90;;;;;;5015836;28;20295;-50
2023/01/31 13:07:05;;;;;;;3.90;1.77;;;6.40;99.90;;;;;;5010540;28;20220;-53
2023/01/31 13:09:33;;;;;;;2.03;1.30;;;6.50;99.90;;;;;;5020089;28;20477;-48
2023/01/31 13:12:06;;;;;;;1.83;1.37;;;6.50;99.90;;;;;;5001014;27;20212;-54
2023/01/31 13:14:40;;;;;;;2.93;1.33;;;6.50;99.90;;;;;;5037620;27;20562;-50
2023/01/31 13:17:10;;;;;;;5.03;1.50;;;6.50;99.90;;;;;;5014638;27;20201;-47
2023/01/31 13:19:43;;;;;;;3.57;1.40;;;6.60;99.90;;;;;;5007680;28;20200;-49
2023/01/31 13:22:16;;;;;;;5.67;1.40;;;6.60;99.90;;;;;;5006332;28;20208;-46
2023/01/31 13:24:48;;;;;;;5.93;1.80;;;6.60;99.90;;;;;;5009886;28;20217;-48
2023/01/31 13:27:20;;;;;;;9.87;2.23;;;6.60;99.90;;;;;;4997989;28;20240;-46
2023/01/31 13:29:55;;;;;;;3.53;2.20;;;6.70;99.90;;;;;;5019949;28;20734;-50
2023/01/31 13:32:28;;;;;;;7.27;2.13;;;6.80;99.90;;;;;;5008987;28;20199;-48